Time;durP1;ratioP1;P1;durP2;ratioP2;P2;SDS_P1;SDS_P2;PMS_P1;PMS_P2;Temp;Humidity;BMP_temperature;BMP_pressure;BME280_temperature;BME280_humidity;BME280_pressure;Samples;Min_cycle;Max_cycle;Signal;HPM_P1;HPM_P2
2023/07/29 00:00:09;;;;;;;;;;;;;;;;;;1271622;23;20337;-20
2023/07/29 00:00:39;;;;;;;;;;;;;;;;;;1271887;23;20375;-20
2023/07/29 00:01:09;;;;;;;;;;;;;;;;;;1271755;23;19984;-20
2023/07/29 00:01:40;;;;;;;;;;;;;;;;;;1271905;23;20046;-17
2023/07/29 00:02:11;;;;;;;;;;;;;;;;;;1271739;23;19905;-19
2023/07/29 00:02:41;;;;;;;;;;;;;;;;;;1271985;23;19939;-17
2023/07/29 00:03:11;;;;;;;;;;;;;;;;;;1271670;23;20272;-17
2023/07/29 00:03:41;;;;;;;;;;;;;;;;;;1271923;23;20003;-19
2023/07/29 00:04:12;;;;;;;;;;;;;;;;;;1271694;23;19947;-20
2023/07/29 00:04:42;;;;;;;;;;;;;;;;;;1271873;23;19908;-21
2023/07/29 00:05:12;;;;;;;;;;;;;;;;;;1271695;23;19912;-20
2023/07/29 00:05:42;;;;;;;;;;;;;;;;;;1271892;23;19916;-18
2023/07/29 00:06:13;;;;;;;;;;;;;;;;;;1271711;23;19905;-20
2023/07/29 00:06:43;;;;;;;;;;;;;;;;;;1271877;23;19910;-21
2023/07/29 00:07:13;;;;;;;;;;;;;;;;;;1271716;23;19985;-19
2023/07/29 00:07:43;;;;;;;;;;;;;;;;;;1271863;23;19991;-19
2023/07/29 00:08:13;;;;;;;;;;;;;;;;;;1271673;23;19913;-18
2023/07/29 00:08:44;;;;;;;;;;;;;;;;;;1271963;23;19912;-19
2023/07/29 00:09:14;;;;;;;;;;;;;;;;;;1271819;23;19956;-19
2023/07/29 00:09:44;;;;;;;;;;;;;;;;;;1271909;23;19995;-16
2023/07/29 00:10:14;;;;;;;;;;;;;;;;;;1271677;23;19911;-21
2023/07/29 00:10:45;;;;;;;;;;;;;;;;;;1271846;23;19916;-17
2023/07/29 00:11:15;;;;;;;;;;;;;;;;;;1271756;23;19912;-18
2023/07/29 00:11:45;;;;;;;;;;;;;;;;;;1271947;23;19908;-17
2023/07/29 00:12:16;;;;;;;;;;;;;;;;;;1271650;23;20408;-18
2023/07/29 00:12:46;;;;;;;;;;;;;;;;;;1271822;23;19932;-17
2023/07/29 00:13:16;;;;;;;;;;;;;;;;;;1271727;23;19950;-20
2023/07/29 00:13:47;;;;;;;;;;;;;;;;;;1271878;23;19908;-17
2023/07/29 00:14:17;;;;;;;;;;;;;;;;;;1271765;23;19946;-18
2023/07/29 00:14:47;;;;;;;;;;;;;;;;;;1271943;23;20272;-16
2023/07/29 00:15:17;;;;;;;;;;;;;;;;;;1271648;23;19912;-20
2023/07/29 00:15:48;;;;;;;;;;;;;;;;;;1271938;23;19908;-20
2023/07/29 00:16:21;;;;;;;;;;;;;;;;;;1271682;23;19912;-18
2023/07/29 00:16:52;;;;;;;;;;;;;;;;;;1271657;23;19918;-17
2023/07/29 00:17:22;;;;;;;;;;;;;;;;;;1271898;23;20244;-16
2023/07/29 00:17:52;;;;;;;;;;;;;;;;;;1271811;23;20206;-16
2023/07/29 00:18:23;;;;;;;;;;;;;;;;;;1271821;23;20266;-17
2023/07/29 00:18:53;;;;;;;;;;;;;;;;;;1271721;23;19909;-20
2023/07/29 00:19:23;;;;;;;;;;;;;;;;;;1271764;23;19909;-20
2023/07/29 00:19:54;;;;;;;;;;;;;;;;;;1271619;23;19912;-18
2023/07/29 00:20:24;;;;;;;;;;;;;;;;;;1271854;23;19962;-18
2023/07/29 00:20:54;;;;;;;;;;;;;;;;;;1271651;23;19913;-19
2023/07/29 00:21:24;;;;;;;;;;;;;;;;;;1271908;23;19904;-20
2023/07/29 00:21:55;;;;;;;;;;;;;;;;;;1271755;23;19931;-18
2023/07/29 00:22:25;;;;;;;;;;;;;;;;;;1271988;23;19931;-17
2023/07/29 00:22:55;;;;;;;;;;;;;;;;;;1271747;23;19932;-21
2023/07/29 00:23:25;;;;;;;;;;;;;;;;;;1271853;23;19911;-18
2023/07/29 00:24:00;;;;;;;;;;;;;;;;;;1271650;23;19905;-17
2023/07/29 00:24:31;;;;;;;;;;;;;;;;;;1271895;23;19950;-19
2023/07/29 00:25:01;;;;;;;;;;;;;;;;;;1271687;23;19904;-18
2023/07/29 00:25:31;;;;;;;;;;;;;;;;;;1271842;23;19908;-17
2023/07/29 00:26:01;;;;;;;;;;;;;;;;;;1271668;23;20241;-17
2023/07/29 00:26:32;;;;;;;;;;;;;;;;;;1271976;23;20241;-19
2023/07/29 00:27:02;;;;;;;;;;;;;;;;;;1271628;23;20321;-18
2023/07/29 00:27:32;;;;;;;;;;;;;;;;;;1271916;23;19905;-17
2023/07/29 00:28:02;;;;;;;;;;;;;;;;;;1271706;23;19905;-21
2023/07/29 00:28:33;;;;;;;;;;;;;;;;;;1271924;23;19905;-17
2023/07/29 00:29:03;;;;;;;;;;;;;;;;;;1271709;23;19954;-15
2023/07/29 00:29:33;;;;;;;;;;;;;;;;;;1271785;23;19932;-21
2023/07/29 00:30:03;;;;;;;;;;;;;;;;;;1271590;23;19905;-19
2023/07/29 00:30:34;;;;;;;;;;;;;;;;;;1271839;23;19916;-20
2023/07/29 00:31:04;;;;;;;;;;;;;;;;;;1271597;23;20325;-19
2023/07/29 00:31:34;;;;;;;;;;;;;;;;;;1271900;23;19913;-19
2023/07/29 00:32:04;;;;;;;;;;;;;;;;;;1271668;23;19991;-20
2023/07/29 00:32:34;;;;;;;;;;;;;;;;;;1272007;23;20340;-21
2023/07/29 00:33:05;;;;;;;;;;;;;;;;;;1271636;23;20321;-20
2023/07/29 00:33:35;;;;;;;;;;;;;;;;;;1271899;23;20325;-20
2023/07/29 00:34:05;;;;;;;;;;;;;;;;;;1271673;23;19911;-19
2023/07/29 00:34:35;;;;;;;;;;;;;;;;;;1271940;23;20237;-19
2023/07/29 00:35:05;;;;;;;;;;;;;;;;;;1271674;23;20233;-20
2023/07/29 00:35:36;;;;;;;;;;;;;;;;;;1271865;23;20325;-19
2023/07/29 00:36:06;;;;;;;;;;;;;;;;;;1271626;23;20239;-18
2023/07/29 00:36:36;;;;;;;;;;;;;;;;;;1271871;23;19912;-19
2023/07/29 00:37:06;;;;;;;;;;;;;;;;;;1271668;23;19905;-20
2023/07/29 00:37:37;;;;;;;;;;;;;;;;;;1271935;23;19939;-20
2023/07/29 00:38:08;;;;;;;;;;;;;;;;;;1271507;23;19905;-20
2023/07/29 00:38:38;;;;;;;;;;;;;;;;;;1271904;23;19905;-18
2023/07/29 00:39:08;;;;;;;;;;;;;;;;;;1271673;23;19928;-15
2023/07/29 00:39:39;;;;;;;;;;;;;;;;;;1271857;23;19905;-19
2023/07/29 00:40:09;;;;;;;;;;;;;;;;;;1271486;23;19932;-17
2023/07/29 00:40:39;;;;;;;;;;;;;;;;;;1271916;23;20290;-17
2023/07/29 00:41:13;;;;;;;;;;;;;;;;;;1271736;23;19965;-16
2023/07/29 00:41:43;;;;;;;;;;;;;;;;;;1271786;23;19966;-17
2023/07/29 00:42:13;;;;;;;;;;;;;;;;;;1271716;23;19905;-20
2023/07/29 00:42:43;;;;;;;;;;;;;;;;;;1271894;23;19909;-20
2023/07/29 00:43:13;;;;;;;;;;;;;;;;;;1271604;23;19904;-20
2023/07/29 00:43:44;;;;;;;;;;;;;;;;;;1271867;23;19947;-21
2023/07/29 00:44:14;;;;;;;;;;;;;;;;;;1271676;23;20268;-17
2023/07/29 00:44:44;;;;;;;;;;;;;;;;;;1271907;23;20218;-18
2023/07/29 00:45:15;;;;;;;;;;;;;;;;;;1271651;23;19905;-18
2023/07/29 00:45:45;;;;;;;;;;;;;;;;;;1271810;23;19909;-18
2023/07/29 00:46:15;;;;;;;;;;;;;;;;;;1271762;23;19911;-17
2023/07/29 00:46:45;;;;;;;;;;;;;;;;;;1271856;23;19957;-17
2023/07/29 00:47:16;;;;;;;;;;;;;;;;;;1271685;23;19909;-17
2023/07/29 00:47:46;;;;;;;;;;;;;;;;;;1271916;23;19909;-16
2023/07/29 00:48:16;;;;;;;;;;;;;;;;;;1271701;23;19911;-21
2023/07/29 00:48:46;;;;;;;;;;;;;;;;;;1271912;23;19908;-20
2023/07/29 00:49:17;;;;;;;;;;;;;;;;;;1271737;23;19904;-19
2023/07/29 00:49:47;;;;;;;;;;;;;;;;;;1271793;23;19983;-18
2023/07/29 00:50:17;;;;;;;;;;;;;;;;;;1271621;23;19905;-17
2023/07/29 00:50:47;;;;;;;;;;;;;;;;;;1271885;23;19909;-20
2023/07/29 00:51:17;;;;;;;;;;;;;;;;;;1271675;23;19905;-18
2023/07/29 00:51:48;;;;;;;;;;;;;;;;;;1271904;23;20269;-19
2023/07/29 00:52:18;;;;;;;;;;;;;;;;;;1271751;23;20241;-19
2023/07/29 00:52:48;;;;;;;;;;;;;;;;;;1271855;23;19916;-16
2023/07/29 00:53:18;;;;;;;;;;;;;;;;;;1271756;23;19954;-18
2023/07/29 00:53:49;;;;;;;;;;;;;;;;;;1271741;23;19909;-20
2023/07/29 00:54:19;;;;;;;;;;;;;;;;;;1271846;23;19912;-21
2023/07/29 00:54:49;;;;;;;;;;;;;;;;;;1271735;23;19909;-18
2023/07/29 00:55:19;;;;;;;;;;;;;;;;;;1271745;23;19904;-19
2023/07/29 00:55:50;;;;;;;;;;;;;;;;;;1271606;23;19954;-17
2023/07/29 00:56:20;;;;;;;;;;;;;;;;;;1271869;23;19905;-21
2023/07/29 00:56:50;;;;;;;;;;;;;;;;;;1271556;23;19908;-19
2023/07/29 00:57:20;;;;;;;;;;;;;;;;;;1271860;23;19912;-20
2023/07/29 00:57:52;;;;;;;;;;;;;;;;;;1271724;23;20333;-17
2023/07/29 00:58:22;;;;;;;;;;;;;;;;;;1271753;23;19991;-18
2023/07/29 00:58:58;;;;;;;;;;;;;;;;;;1271680;23;19942;-18
2023/07/29 00:59:30;;;;;;;;;;;;;;;;;;1271865;23;19909;-19
2023/07/29 01:00:00;;;;;;;;;;;;;;;;;;1271650;23;20317;-17
2023/07/29 01:00:30;;;;;;;;;;;;;;;;;;1271799;23;19912;-19
2023/07/29 01:01:00;;;;;;;;;;;;;;;;;;1271697;23;19908;-21
2023/07/29 01:01:30;;;;;;;;;;;;;;;;;;1271900;23;19912;-19
2023/07/29 01:02:01;;;;;;;;;;;;;;;;;;1271540;23;19904;-19
2023/07/29 01:02:32;;;;;;;;;;;;;;;;;;1271871;23;19950;-15
2023/07/29 01:03:02;;;;;;;;;;;;;;;;;;1271634;23;19904;-19
2023/07/29 01:03:33;;;;;;;;;;;;;;;;;;1271925;23;20330;-18
2023/07/29 01:04:03;;;;;;;;;;;;;;;;;;1271675;23;19904;-20
2023/07/29 01:04:33;;;;;;;;;;;;;;;;;;1271905;23;19909;-17
2023/07/29 01:05:03;;;;;;;;;;;;;;;;;;1271705;23;19912;-17
2023/07/29 01:05:33;;;;;;;;;;;;;;;;;;1271846;23;19916;-16
2023/07/29 01:06:04;;;;;;;;;;;;;;;;;;1271404;23;19935;-20
2023/07/29 01:06:35;;;;;;;;;;;;;;;;;;1271630;23;19913;-20
2023/07/29 01:07:05;;;;;;;;;;;;;;;;;;1271568;23;19909;-16
2023/07/29 01:07:35;;;;;;;;;;;;;;;;;;1271753;23;19908;-19
2023/07/29 01:08:06;;;;;;;;;;;;;;;;;;1271555;23;19905;-19
2023/07/29 01:08:36;;;;;;;;;;;;;;;;;;1271940;23;19912;-20
2023/07/29 01:09:06;;;;;;;;;;;;;;;;;;1271615;23;19912;-19
2023/07/29 01:09:36;;;;;;;;;;;;;;;;;;1271871;23;19905;-18
2023/07/29 01:10:07;;;;;;;;;;;;;;;;;;1271637;23;19950;-17
2023/07/29 01:10:37;;;;;;;;;;;;;;;;;;1271749;23;20341;-20
2023/07/29 01:11:07;;;;;;;;;;;;;;;;;;1271705;23;19912;-18
2023/07/29 01:11:37;;;;;;;;;;;;;;;;;;1271878;23;19905;-20
2023/07/29 01:12:07;;;;;;;;;;;;;;;;;;1271629;23;19954;-19
2023/07/29 01:12:38;;;;;;;;;;;;;;;;;;1271833;23;19904;-17
2023/07/29 01:13:08;;;;;;;;;;;;;;;;;;1271697;23;19950;-19
2023/07/29 01:13:38;;;;;;;;;;;;;;;;;;1271831;23;19911;-20
2023/07/29 01:14:08;;;;;;;;;;;;;;;;;;1271694;23;19905;-21
2023/07/29 01:14:39;;;;;;;;;;;;;;;;;;1271827;23;19904;-20
2023/07/29 01:15:10;;;;;;;;;;;;;;;;;;1271546;23;20305;-20
2023/07/29 01:15:40;;;;;;;;;;;;;;;;;;1271859;23;19912;-20
2023/07/29 01:16:10;;;;;;;;;;;;;;;;;;1271662;23;19904;-18
2023/07/29 01:16:40;;;;;;;;;;;;;;;;;;1271864;23;19921;-18
2023/07/29 01:17:10;;;;;;;;;;;;;;;;;;1271668;23;19905;-16
2023/07/29 01:17:41;;;;;;;;;;;;;;;;;;1271849;23;19939;-20
2023/07/29 01:18:11;;;;;;;;;;;;;;;;;;1271543;23;19905;-20
2023/07/29 01:18:41;;;;;;;;;;;;;;;;;;1271756;23;19908;-20
2023/07/29 01:19:11;;;;;;;;;;;;;;;;;;1271581;23;19904;-20
2023/07/29 01:19:42;;;;;;;;;;;;;;;;;;1271853;23;19937;-16
2023/07/29 01:20:12;;;;;;;;;;;;;;;;;;1271545;23;19904;-18
2023/07/29 01:20:42;;;;;;;;;;;;;;;;;;1271811;23;19908;-20
2023/07/29 01:21:12;;;;;;;;;;;;;;;;;;1271654;23;19991;-18
2023/07/29 01:21:43;;;;;;;;;;;;;;;;;;1271762;23;19909;-20
2023/07/29 01:22:13;;;;;;;;;;;;;;;;;;1271659;23;19905;-16
2023/07/29 01:22:43;;;;;;;;;;;;;;;;;;1271884;23;19908;-19
2023/07/29 01:23:13;;;;;;;;;;;;;;;;;;1271681;23;19904;-19
2023/07/29 01:23:44;;;;;;;;;;;;;;;;;;1271832;23;19913;-16
2023/07/29 01:24:14;;;;;;;;;;;;;;;;;;1271629;23;19917;-17
2023/07/29 01:24:44;;;;;;;;;;;;;;;;;;1271855;23;19913;-17
2023/07/29 01:25:14;;;;;;;;;;;;;;;;;;1271656;23;19905;-19
2023/07/29 01:25:45;;;;;;;;;;;;;;;;;;1271782;23;19908;-18
2023/07/29 01:26:15;;;;;;;;;;;;;;;;;;1271675;23;19904;-20
2023/07/29 01:26:45;;;;;;;;;;;;;;;;;;1271867;23;19908;-18
2023/07/29 01:27:15;;;;;;;;;;;;;;;;;;1271658;23;19995;-16
2023/07/29 01:27:46;;;;;;;;;;;;;;;;;;1271838;23;19915;-20
2023/07/29 01:28:16;;;;;;;;;;;;;;;;;;1271699;23;20211;-18
2023/07/29 01:28:46;;;;;;;;;;;;;;;;;;1271886;23;20316;-19
2023/07/29 01:29:16;;;;;;;;;;;;;;;;;;1271628;23;19905;-18
2023/07/29 01:29:47;;;;;;;;;;;;;;;;;;1271812;23;19909;-18
2023/07/29 01:30:17;;;;;;;;;;;;;;;;;;1271558;23;19988;-18
2023/07/29 01:30:47;;;;;;;;;;;;;;;;;;1271834;23;19909;-16
2023/07/29 01:31:17;;;;;;;;;;;;;;;;;;1271643;23;19904;-16
2023/07/29 01:31:48;;;;;;;;;;;;;;;;;;1271824;23;19958;-17
2023/07/29 01:32:18;;;;;;;;;;;;;;;;;;1271621;23;19932;-19
2023/07/29 01:32:48;;;;;;;;;;;;;;;;;;1271837;23;19909;-17
2023/07/29 01:33:19;;;;;;;;;;;;;;;;;;1271641;23;19904;-19
2023/07/29 01:33:49;;;;;;;;;;;;;;;;;;1271734;23;19987;-16
2023/07/29 01:34:19;;;;;;;;;;;;;;;;;;1271794;23;20411;-17
2023/07/29 01:34:49;;;;;;;;;;;;;;;;;;1271658;23;20293;-19
2023/07/29 01:35:20;;;;;;;;;;;;;;;;;;1271662;23;19905;-17
2023/07/29 01:35:50;;;;;;;;;;;;;;;;;;1271626;23;19991;-19
2023/07/29 01:36:20;;;;;;;;;;;;;;;;;;1271782;23;19912;-18
2023/07/29 01:36:50;;;;;;;;;;;;;;;;;;1271550;23;19905;-16
2023/07/29 01:37:20;;;;;;;;;;;;;;;;;;1271875;23;19905;-17
2023/07/29 01:37:51;;;;;;;;;;;;;;;;;;1271454;23;19947;-16
2023/07/29 01:38:21;;;;;;;;;;;;;;;;;;1271804;23;19913;-17
2023/07/29 01:38:51;;;;;;;;;;;;;;;;;;1271615;23;19904;-20
2023/07/29 01:39:22;;;;;;;;;;;;;;;;;;1271738;23;19904;-19
2023/07/29 01:39:52;;;;;;;;;;;;;;;;;;1271533;23;19905;-17
2023/07/29 01:40:23;;;;;;;;;;;;;;;;;;1271808;23;19932;-18
2023/07/29 01:40:53;;;;;;;;;;;;;;;;;;1271577;23;19905;-19
2023/07/29 01:41:23;;;;;;;;;;;;;;;;;;1271853;23;20321;-17
2023/07/29 01:41:54;;;;;;;;;;;;;;;;;;1271635;23;19974;-18
2023/07/29 01:42:24;;;;;;;;;;;;;;;;;;1271883;23;20355;-19
2023/07/29 01:42:54;;;;;;;;;;;;;;;;;;1271639;23;20352;-20
2023/07/29 01:43:25;;;;;;;;;;;;;;;;;;1271826;23;20318;-18
2023/07/29 01:43:56;;;;;;;;;;;;;;;;;;1271553;23;19908;-19
2023/07/29 01:44:26;;;;;;;;;;;;;;;;;;1271885;23;19908;-18
2023/07/29 01:44:56;;;;;;;;;;;;;;;;;;1271676;23;19990;-19
2023/07/29 01:45:26;;;;;;;;;;;;;;;;;;1271813;23;19920;-19
2023/07/29 01:45:56;;;;;;;;;;;;;;;;;;1271610;23;19905;-21
2023/07/29 01:46:27;;;;;;;;;;;;;;;;;;1271887;23;19905;-20
2023/07/29 01:46:57;;;;;;;;;;;;;;;;;;1271557;23;19905;-18
2023/07/29 01:47:27;;;;;;;;;;;;;;;;;;1271822;23;19946;-21
2023/07/29 01:47:57;;;;;;;;;;;;;;;;;;1271844;23;19943;-19
2023/07/29 01:48:30;;;;;;;;;;;;;;;;;;1272155;23;20249;-17
2023/07/29 01:49:00;;;;;;;;;;;;;;;;;;1271856;23;19911;-19
2023/07/29 01:49:30;;;;;;;;;;;;;;;;;;1271862;23;19912;-19
2023/07/29 01:50:01;;;;;;;;;;;;;;;;;;1271672;23;19950;-16
2023/07/29 01:50:31;;;;;;;;;;;;;;;;;;1271642;23;19954;-19
2023/07/29 01:51:02;;;;;;;;;;;;;;;;;;1271568;23;20356;-20
2023/07/29 01:51:32;;;;;;;;;;;;;;;;;;1271849;23;20046;-18
2023/07/29 01:52:03;;;;;;;;;;;;;;;;;;1271616;23;19905;-21
2023/07/29 01:52:33;;;;;;;;;;;;;;;;;;1271879;23;20317;-19
2023/07/29 01:53:03;;;;;;;;;;;;;;;;;;1271614;23;19911;-18
2023/07/29 01:53:33;;;;;;;;;;;;;;;;;;1271960;23;19987;-19
2023/07/29 01:54:04;;;;;;;;;;;;;;;;;;1271640;23;20325;-18
2023/07/29 01:54:34;;;;;;;;;;;;;;;;;;1271789;23;20336;-19
2023/07/29 01:55:04;;;;;;;;;;;;;;;;;;1271598;23;20321;-19
2023/07/29 01:55:35;;;;;;;;;;;;;;;;;;1271743;23;19909;-17
2023/07/29 01:56:05;;;;;;;;;;;;;;;;;;1271552;23;19940;-20
2023/07/29 01:56:35;;;;;;;;;;;;;;;;;;1271816;23;19942;-16
2023/07/29 01:57:05;;;;;;;;;;;;;;;;;;1271506;23;19987;-19
2023/07/29 01:57:36;;;;;;;;;;;;;;;;;;1271823;23;20321;-20
2023/07/29 01:58:06;;;;;;;;;;;;;;;;;;1271540;23;20317;-16
2023/07/29 01:58:36;;;;;;;;;;;;;;;;;;1271804;23;20284;-19
2023/07/29 01:59:06;;;;;;;;;;;;;;;;;;1271557;23;20332;-18
2023/07/29 01:59:37;;;;;;;;;;;;;;;;;;1271901;23;20405;-19
2023/07/29 02:00:07;;;;;;;;;;;;;;;;;;1271491;23;20321;-18
2023/07/29 02:00:38;;;;;;;;;;;;;;;;;;1271628;23;20264;-21
2023/07/29 02:01:08;;;;;;;;;;;;;;;;;;1265090;23;19988;-18
2023/07/29 02:01:38;;;;;;;;;;;;;;;;;;1265261;23;19986;-20
2023/07/29 02:02:08;;;;;;;;;;;;;;;;;;1265136;23;19904;-17
2023/07/29 02:02:39;;;;;;;;;;;;;;;;;;1265269;23;19905;-18
2023/07/29 02:03:09;;;;;;;;;;;;;;;;;;1271563;23;20317;-17
2023/07/29 02:03:39;;;;;;;;;;;;;;;;;;1271799;23;19905;-18
2023/07/29 02:04:09;;;;;;;;;;;;;;;;;;1271581;23;19942;-20
2023/07/29 02:04:39;;;;;;;;;;;;;;;;;;1271784;23;19913;-20
2023/07/29 02:05:10;;;;;;;;;;;;;;;;;;1271356;23;19943;-21
2023/07/29 02:05:41;;;;;;;;;;;;;;;;;;1271657;23;19920;-19
2023/07/29 02:06:11;;;;;;;;;;;;;;;;;;1271609;23;19904;-19
2023/07/29 02:06:42;;;;;;;;;;;;;;;;;;1271622;23;19940;-21
2023/07/29 02:07:12;;;;;;;;;;;;;;;;;;1271518;23;19912;-21
2023/07/29 02:07:42;;;;;;;;;;;;;;;;;;1271734;23;19979;-19
2023/07/29 02:08:13;;;;;;;;;;;;;;;;;;1265089;23;19999;-18
2023/07/29 02:08:44;;;;;;;;;;;;;;;;;;1265223;23;19992;-19
2023/07/29 02:09:14;;;;;;;;;;;;;;;;;;1265132;23;19916;-21
2023/07/29 02:09:44;;;;;;;;;;;;;;;;;;1265453;23;19912;-20
2023/07/29 02:10:15;;;;;;;;;;;;;;;;;;1271515;23;19966;-17
2023/07/29 02:10:45;;;;;;;;;;;;;;;;;;1271717;23;19915;-17
2023/07/29 02:11:15;;;;;;;;;;;;;;;;;;1271540;23;20308;-20
2023/07/29 02:11:45;;;;;;;;;;;;;;;;;;1271725;23;19908;-19
2023/07/29 02:12:16;;;;;;;;;;;;;;;;;;1271569;23;19904;-17
2023/07/29 02:12:46;;;;;;;;;;;;;;;;;;1271733;23;19958;-18
2023/07/29 02:13:16;;;;;;;;;;;;;;;;;;1271610;23;20337;-19
2023/07/29 02:13:46;;;;;;;;;;;;;;;;;;1271717;23;20042;-20
2023/07/29 02:14:17;;;;;;;;;;;;;;;;;;1271580;23;19904;-17
2023/07/29 02:14:47;;;;;;;;;;;;;;;;;;1271746;23;19909;-20
2023/07/29 02:15:17;;;;;;;;;;;;;;;;;;1271520;23;19911;-19
2023/07/29 02:15:47;;;;;;;;;;;;;;;;;;1271664;23;19908;-17
2023/07/29 02:16:18;;;;;;;;;;;;;;;;;;1271549;23;20440;-20
2023/07/29 02:16:49;;;;;;;;;;;;;;;;;;1271562;23;20330;-20
2023/07/29 02:17:19;;;;;;;;;;;;;;;;;;1271668;23;20240;-19
2023/07/29 02:17:49;;;;;;;;;;;;;;;;;;1271920;23;19912;-19
2023/07/29 02:18:19;;;;;;;;;;;;;;;;;;1271940;23;19912;-17
2023/07/29 02:18:50;;;;;;;;;;;;;;;;;;1271826;23;19915;-18
2023/07/29 02:19:20;;;;;;;;;;;;;;;;;;1271850;23;19970;-17
2023/07/29 02:19:50;;;;;;;;;;;;;;;;;;1271808;23;19912;-20
2023/07/29 02:20:20;;;;;;;;;;;;;;;;;;1271906;23;19966;-18
2023/07/29 02:20:51;;;;;;;;;;;;;;;;;;1271832;23;19947;-20
2023/07/29 02:21:21;;;;;;;;;;;;;;;;;;1272041;23;19991;-18
2023/07/29 02:21:51;;;;;;;;;;;;;;;;;;1271785;23;19905;-16
2023/07/29 02:22:21;;;;;;;;;;;;;;;;;;1272058;23;19951;-18
2023/07/29 02:22:52;;;;;;;;;;;;;;;;;;1271844;23;19950;-17
2023/07/29 02:23:22;;;;;;;;;;;;;;;;;;1272047;23;19912;-18
2023/07/29 02:23:53;;;;;;;;;;;;;;;;;;1271820;23;20324;-18
2023/07/29 02:24:23;;;;;;;;;;;;;;;;;;1272039;23;19905;-18
2023/07/29 02:24:53;;;;;;;;;;;;;;;;;;1271719;23;19959;-17
2023/07/29 02:25:23;;;;;;;;;;;;;;;;;;1271944;23;19905;-17
2023/07/29 02:25:54;;;;;;;;;;;;;;;;;;1271794;23;19919;-17
2023/07/29 02:26:24;;;;;;;;;;;;;;;;;;1272079;23;20004;-19
2023/07/29 02:26:54;;;;;;;;;;;;;;;;;;1271862;23;19913;-19
2023/07/29 02:27:26;;;;;;;;;;;;;;;;;;1272042;23;19912;-19
2023/07/29 02:27:57;;;;;;;;;;;;;;;;;;1271735;23;19911;-19
2023/07/29 02:28:27;;;;;;;;;;;;;;;;;;1272025;23;19911;-19
2023/07/29 02:28:57;;;;;;;;;;;;;;;;;;1271848;23;19905;-20
2023/07/29 02:29:27;;;;;;;;;;;;;;;;;;1271928;23;20034;-16
2023/07/29 02:29:58;;;;;;;;;;;;;;;;;;1271823;23;19905;-19
2023/07/29 02:30:28;;;;;;;;;;;;;;;;;;1272031;23;20300;-18
2023/07/29 02:30:58;;;;;;;;;;;;;;;;;;1271862;23;20260;-18
2023/07/29 02:31:28;;;;;;;;;;;;;;;;;;1272019;23;19927;-20
2023/07/29 02:31:59;;;;;;;;;;;;;;;;;;1271777;23;19904;-20
2023/07/29 02:32:29;;;;;;;;;;;;;;;;;;1272011;23;19905;-18
2023/07/29 02:33:01;;;;;;;;;;;;;;;;;;1271812;23;19904;-21
2023/07/29 02:33:31;;;;;;;;;;;;;;;;;;1271946;23;19991;-17
2023/07/29 02:34:01;;;;;;;;;;;;;;;;;;1271811;23;19905;-19
2023/07/29 02:34:31;;;;;;;;;;;;;;;;;;1272044;23;19936;-14
2023/07/29 02:35:02;;;;;;;;;;;;;;;;;;1271734;23;19950;-18
2023/07/29 02:35:32;;;;;;;;;;;;;;;;;;1271947;23;19908;-18
2023/07/29 02:36:02;;;;;;;;;;;;;;;;;;1271671;23;19905;-19
2023/07/29 02:36:32;;;;;;;;;;;;;;;;;;1272016;23;19904;-19
2023/07/29 02:37:03;;;;;;;;;;;;;;;;;;1271625;23;19912;-16
2023/07/29 02:37:33;;;;;;;;;;;;;;;;;;1272096;23;20321;-18
2023/07/29 02:38:03;;;;;;;;;;;;;;;;;;1271792;23;20275;-20
2023/07/29 02:38:33;;;;;;;;;;;;;;;;;;1271877;23;20291;-17
2023/07/29 02:39:03;;;;;;;;;;;;;;;;;;1271809;23;19909;-16
2023/07/29 02:39:34;;;;;;;;;;;;;;;;;;1271950;23;19944;-18
2023/07/29 02:40:04;;;;;;;;;;;;;;;;;;1271759;23;19995;-17
2023/07/29 02:40:34;;;;;;;;;;;;;;;;;;1271998;23;19909;-21
2023/07/29 02:41:05;;;;;;;;;;;;;;;;;;1271725;23;19904;-20
2023/07/29 02:41:35;;;;;;;;;;;;;;;;;;1272028;23;19904;-20
2023/07/29 02:42:05;;;;;;;;;;;;;;;;;;1271818;23;19905;-19
2023/07/29 02:42:36;;;;;;;;;;;;;;;;;;1271969;23;20054;-18
2023/07/29 02:43:06;;;;;;;;;;;;;;;;;;1271725;23;19904;-16
2023/07/29 02:43:36;;;;;;;;;;;;;;;;;;1271979;23;19992;-20
2023/07/29 02:44:07;;;;;;;;;;;;;;;;;;1271737;23;19911;-19
2023/07/29 02:44:37;;;;;;;;;;;;;;;;;;1271955;23;19905;-18
2023/07/29 02:45:09;;;;;;;;;;;;;;;;;;1271677;23;20260;-19
2023/07/29 02:45:39;;;;;;;;;;;;;;;;;;1271919;23;19904;-20
2023/07/29 02:46:10;;;;;;;;;;;;;;;;;;1271810;23;20325;-20
2023/07/29 02:46:40;;;;;;;;;;;;;;;;;;1271962;23;20284;-20
2023/07/29 02:47:10;;;;;;;;;;;;;;;;;;1272290;23;20314;-19
2023/07/29 02:47:40;;;;;;;;;;;;;;;;;;1272801;23;19995;-20
2023/07/29 02:48:11;;;;;;;;;;;;;;;;;;1272397;23;19905;-19
2023/07/29 02:48:41;;;;;;;;;;;;;;;;;;1265761;23;19916;-20
2023/07/29 02:49:11;;;;;;;;;;;;;;;;;;1265436;23;19905;-21
2023/07/29 02:49:41;;;;;;;;;;;;;;;;;;1265516;23;19914;-20
2023/07/29 02:50:12;;;;;;;;;;;;;;;;;;1265288;23;20349;-19
2023/07/29 02:50:42;;;;;;;;;;;;;;;;;;1271931;23;20338;-17
2023/07/29 02:51:12;;;;;;;;;;;;;;;;;;1271838;23;19905;-18
2023/07/29 02:51:42;;;;;;;;;;;;;;;;;;1271942;23;19908;-21
2023/07/29 02:52:13;;;;;;;;;;;;;;;;;;1271757;23;19904;-18
2023/07/29 02:52:43;;;;;;;;;;;;;;;;;;1271819;23;19940;-21
2023/07/29 02:53:13;;;;;;;;;;;;;;;;;;1271828;23;20238;-20
2023/07/29 02:53:43;;;;;;;;;;;;;;;;;;1271997;23;20238;-17
2023/07/29 02:54:13;;;;;;;;;;;;;;;;;;1271814;23;19950;-20
2023/07/29 02:54:44;;;;;;;;;;;;;;;;;;1271976;23;19919;-18
2023/07/29 02:55:14;;;;;;;;;;;;;;;;;;1271613;23;19913;-21
2023/07/29 02:55:44;;;;;;;;;;;;;;;;;;1271973;23;19913;-18
2023/07/29 02:56:15;;;;;;;;;;;;;;;;;;1271788;23;19904;-19
2023/07/29 02:56:45;;;;;;;;;;;;;;;;;;1271978;23;19943;-19
2023/07/29 02:57:17;;;;;;;;;;;;;;;;;;1271782;23;19905;-21
2023/07/29 02:57:47;;;;;;;;;;;;;;;;;;1271805;23;20333;-20
2023/07/29 02:58:17;;;;;;;;;;;;;;;;;;1271727;23;19911;-20
2023/07/29 02:58:48;;;;;;;;;;;;;;;;;;1271958;23;19916;-18
2023/07/29 02:59:18;;;;;;;;;;;;;;;;;;1271817;23;20244;-19
2023/07/29 02:59:48;;;;;;;;;;;;;;;;;;1271967;23;19954;-21
2023/07/29 03:00:18;;;;;;;;;;;;;;;;;;1265254;23;19905;-20
2023/07/29 03:00:48;;;;;;;;;;;;;;;;;;1259340;23;19910;-16
2023/07/29 03:01:19;;;;;;;;;;;;;;;;;;1259325;23;19905;-19
2023/07/29 03:01:49;;;;;;;;;;;;;;;;;;1259346;23;20043;-18
2023/07/29 03:02:19;;;;;;;;;;;;;;;;;;1265502;23;19905;-19
2023/07/29 03:02:50;;;;;;;;;;;;;;;;;;1271782;23;19958;-21
2023/07/29 03:03:20;;;;;;;;;;;;;;;;;;1272033;23;19904;-20
2023/07/29 03:03:50;;;;;;;;;;;;;;;;;;1271716;23;19908;-17
2023/07/29 03:04:20;;;;;;;;;;;;;;;;;;1271990;23;19904;-18
2023/07/29 03:04:51;;;;;;;;;;;;;;;;;;1271786;23;19904;-19
2023/07/29 03:05:21;;;;;;;;;;;;;;;;;;1271877;23;20341;-20
2023/07/29 03:05:51;;;;;;;;;;;;;;;;;;1271741;23;20338;-21
2023/07/29 03:06:21;;;;;;;;;;;;;;;;;;1271855;23;19905;-17
2023/07/29 03:06:52;;;;;;;;;;;;;;;;;;1271741;23;19936;-19
2023/07/29 03:07:22;;;;;;;;;;;;;;;;;;1271933;23;19982;-19
2023/07/29 03:07:52;;;;;;;;;;;;;;;;;;1271778;23;20409;-21
2023/07/29 03:08:22;;;;;;;;;;;;;;;;;;1271979;23;20237;-18
2023/07/29 03:08:53;;;;;;;;;;;;;;;;;;1271799;23;20237;-17
2023/07/29 03:09:23;;;;;;;;;;;;;;;;;;1272061;23;20222;-18
2023/07/29 03:09:53;;;;;;;;;;;;;;;;;;1271293;23;19905;-18
2023/07/29 03:10:23;;;;;;;;;;;;;;;;;;1271987;23;19959;-20
2023/07/29 03:10:53;;;;;;;;;;;;;;;;;;1271816;23;19987;-18
2023/07/29 03:11:24;;;;;;;;;;;;;;;;;;1272045;23;19908;-20
2023/07/29 03:11:54;;;;;;;;;;;;;;;;;;1271757;23;19913;-20
2023/07/29 03:12:25;;;;;;;;;;;;;;;;;;1271911;23;19905;-21
2023/07/29 03:12:55;;;;;;;;;;;;;;;;;;1271730;23;20325;-18
2023/07/29 03:13:25;;;;;;;;;;;;;;;;;;1272032;23;19955;-17
2023/07/29 03:13:56;;;;;;;;;;;;;;;;;;1271737;23;19905;-20
2023/07/29 03:14:27;;;;;;;;;;;;;;;;;;1271947;23;19905;-17
2023/07/29 03:14:58;;;;;;;;;;;;;;;;;;1271681;23;19904;-17
2023/07/29 03:15:28;;;;;;;;;;;;;;;;;;1271955;23;19917;-16
2023/07/29 03:15:59;;;;;;;;;;;;;;;;;;1271779;23;19912;-19
2023/07/29 03:16:29;;;;;;;;;;;;;;;;;;1271872;23;19904;-16
2023/07/29 03:16:59;;;;;;;;;;;;;;;;;;1271640;23;19905;-19
2023/07/29 03:17:29;;;;;;;;;;;;;;;;;;1271980;23;19908;-19
2023/07/29 03:17:59;;;;;;;;;;;;;;;;;;1271792;23;19904;-21
2023/07/29 03:18:30;;;;;;;;;;;;;;;;;;1271903;23;19912;-18
2023/07/29 03:19:00;;;;;;;;;;;;;;;;;;1271735;23;19905;-19
2023/07/29 03:19:30;;;;;;;;;;;;;;;;;;1271925;23;19911;-19
2023/07/29 03:20:00;;;;;;;;;;;;;;;;;;1271736;23;19912;-20
2023/07/29 03:20:31;;;;;;;;;;;;;;;;;;1271888;23;19909;-19
2023/07/29 03:21:01;;;;;;;;;;;;;;;;;;1271764;23;19901;-20
2023/07/29 03:21:31;;;;;;;;;;;;;;;;;;1271811;23;19931;-19
2023/07/29 03:22:01;;;;;;;;;;;;;;;;;;1271755;23;20318;-19
2023/07/29 03:22:32;;;;;;;;;;;;;;;;;;1271921;23;19908;-19
2023/07/29 03:23:02;;;;;;;;;;;;;;;;;;1271783;23;19954;-19
2023/07/29 03:23:33;;;;;;;;;;;;;;;;;;1271917;23;19909;-19
2023/07/29 03:24:03;;;;;;;;;;;;;;;;;;1271684;23;19919;-18
2023/07/29 03:24:33;;;;;;;;;;;;;;;;;;1271992;23;19965;-21
2023/07/29 03:25:05;;;;;;;;;;;;;;;;;;1271724;23;19909;-18
2023/07/29 03:25:35;;;;;;;;;;;;;;;;;;1271880;23;19908;-19
2023/07/29 03:26:10;;;;;;;;;;;;;;;;;;1271695;23;19983;-20
2023/07/29 03:26:40;;;;;;;;;;;;;;;;;;1271867;23;20325;-19
2023/07/29 03:27:10;;;;;;;;;;;;;;;;;;1265237;23;20008;-20